createdAt,value
2023-04-18T00:01:54.576Z,4.90
2023-04-18T00:05:59.822Z,4.70
2023-04-18T00:10:05.433Z,5.50
2023-04-18T00:14:12.058Z,5.20
2023-04-18T00:18:17.615Z,5.10
2023-04-18T00:22:22.957Z,5.10
2023-04-18T00:26:28.634Z,5.60
2023-04-18T00:30:33.839Z,5.80
2023-04-18T00:34:40.482Z,5.30
2023-04-18T00:38:45.677Z,4.70
2023-04-18T00:42:53.512Z,5.30
2023-04-18T00:46:58.798Z,4.00
2023-04-18T00:51:03.992Z,4.50
2023-04-18T00:55:10.134Z,3.70
2023-04-18T00:59:15.551Z,5.10
2023-04-18T01:07:25.452Z,5.10
2023-04-18T01:15:34.271Z,5.50
2023-04-18T01:19:39.472Z,5.60
2023-04-18T01:23:44.832Z,4.80
2023-04-18T01:27:50.043Z,5.10
2023-04-18T01:31:55.338Z,5.40
2023-04-18T01:36:00.666Z,5.90
2023-04-18T01:40:06.456Z,5.90
2023-04-18T01:44:11.963Z,5.20
2023-04-18T01:48:17.671Z,5.40
2023-04-18T01:56:26.539Z,4.00
2023-04-18T02:00:31.804Z,4.90
2023-04-18T02:04:37.043Z,5.50
2023-04-18T02:08:42.586Z,5.80
2023-04-18T02:16:51.445Z,5.20
2023-04-18T02:20:56.710Z,5.90
2023-04-18T02:25:02.394Z,4.80
2023-04-18T02:29:07.691Z,6.10
2023-04-18T02:33:13.072Z,5.70
2023-04-18T02:37:18.304Z,5.30
2023-04-18T02:41:23.652Z,5.80
2023-04-18T02:45:28.841Z,5.10
2023-04-18T02:49:34.062Z,6.20
2023-04-18T02:53:39.289Z,5.60
2023-04-18T02:57:44.618Z,5.50
2023-04-18T03:01:49.827Z,6.90
2023-04-18T03:05:55.038Z,5.10
2023-04-18T03:10:00.691Z,4.90
2023-04-18T03:14:05.900Z,6.10
2023-04-18T03:18:12.523Z,6.20
2023-04-18T03:22:17.909Z,5.20
2023-04-18T03:26:23.819Z,6.30
2023-04-18T03:30:29.048Z,5.40
2023-04-18T03:34:34.342Z,6.10
2023-04-18T03:38:40.719Z,6.10
2023-04-18T03:42:45.932Z,6.70
2023-04-18T03:46:51.258Z,5.50
2023-04-18T03:50:56.480Z,7.10
2023-04-18T03:55:01.766Z,5.80
2023-04-18T03:59:07.017Z,6.00
2023-04-18T04:03:12.424Z,5.90
2023-04-18T04:07:17.800Z,5.70
2023-04-18T04:11:23.255Z,6.40
2023-04-18T04:19:32.244Z,5.80
2023-04-18T04:23:38.074Z,5.50
2023-04-18T04:27:43.308Z,6.00
2023-04-18T04:31:48.662Z,5.50
2023-04-18T04:39:57.667Z,6.60
2023-04-18T04:44:04.335Z,5.20
2023-04-18T04:48:09.750Z,5.80
2023-04-18T04:56:18.614Z,5.40
2023-04-18T05:00:24.096Z,6.80
2023-04-18T05:04:29.473Z,5.90
2023-04-18T05:08:34.762Z,6.10
2023-04-18T05:12:42.228Z,6.10
2023-04-18T05:16:47.681Z,6.50
2023-04-18T05:20:52.965Z,6.60
2023-04-18T05:29:01.916Z,6.40
2023-04-18T05:33:07.263Z,5.40
2023-04-18T05:41:16.103Z,5.70
2023-04-18T05:45:21.357Z,5.80
2023-04-18T05:49:26.582Z,6.40
2023-04-18T05:53:31.839Z,4.30
2023-04-18T06:02:25.214Z,5.80
2023-04-18T06:06:34.266Z,5.40
2023-04-18T06:15:33.686Z,6.40
2023-04-18T06:24:31.281Z,6.50
2023-04-18T06:28:36.593Z,6.60
2023-04-18T06:32:41.890Z,7.00
2023-04-18T06:36:55.678Z,6.70
2023-04-18T06:41:00.900Z,6.10
2023-04-18T06:45:14.471Z,6.50
2023-04-18T06:49:20.730Z,5.90
2023-04-18T06:58:17.827Z,6.20
2023-04-18T07:02:23.169Z,6.60
2023-04-18T07:06:28.604Z,6.80
2023-04-18T07:10:37.367Z,5.90
2023-04-18T07:14:42.569Z,6.20
2023-04-18T07:19:11.517Z,6.30
2023-04-18T07:27:36.998Z,6.60
2023-04-18T07:31:42.295Z,6.40
2023-04-18T07:35:51.525Z,7.30
2023-04-18T07:39:56.771Z,6.60
2023-04-18T07:44:02.499Z,6.60
2023-04-18T07:48:31.355Z,7.10
2023-04-18T07:52:44.595Z,5.10
2023-04-18T07:56:49.844Z,7.70
2023-04-18T08:00:55.091Z,6.90
2023-04-18T08:05:10.753Z,6.80
2023-04-18T08:09:16.481Z,6.20
2023-04-18T08:13:22.521Z,6.60
2023-04-18T08:17:33.957Z,6.50
2023-04-18T08:21:39.498Z,5.90
2023-04-18T08:25:44.824Z,6.90
2023-04-18T08:29:55.802Z,6.50
2023-04-18T08:38:04.680Z,7.50
2023-04-18T08:42:11.699Z,6.80
2023-04-18T08:46:26.401Z,6.20
2023-04-18T08:50:32.009Z,7.10
2023-04-18T08:54:38.638Z,6.50
2023-04-18T08:58:53.536Z,6.00
2023-04-18T09:16:27.519Z,7.10
2023-04-18T09:20:47.675Z,6.80
2023-04-18T09:24:55.724Z,4.80
2023-04-18T09:33:15.076Z,6.10
2023-04-18T09:37:20.338Z,6.70
2023-04-18T09:45:38.781Z,7.20
2023-04-18T09:49:44.129Z,7.70
2023-04-18T09:54:13.060Z,7.30
2023-04-18T09:58:32.847Z,7.50
2023-04-18T10:03:03.928Z,6.70
2023-04-18T10:07:09.275Z,6.60
2023-04-18T10:11:23.812Z,7.10
2023-04-18T10:15:29.940Z,6.30
2023-04-18T10:24:54.246Z,6.80
2023-04-18T10:29:00.947Z,6.80
2023-04-18T10:34:07.060Z,6.70
2023-04-18T10:38:35.992Z,6.90
2023-04-18T10:43:06.631Z,6.80
2023-04-18T10:52:08.410Z,6.30
2023-04-18T10:56:37.701Z,6.30
2023-04-18T11:04:57.534Z,6.50
2023-04-18T11:09:12.242Z,6.00
2023-04-18T11:13:22.488Z,5.70
2023-04-18T11:21:51.951Z,5.70
2023-04-18T11:25:58.323Z,6.20
2023-04-18T11:30:03.747Z,5.50
2023-04-18T11:34:19.006Z,5.40
2023-04-18T11:42:49.831Z,4.80
2023-04-18T11:46:55.192Z,7.10
2023-04-18T11:51:11.395Z,6.00
2023-04-18T11:59:37.095Z,6.00
2023-04-18T12:03:42.677Z,5.30
2023-04-18T12:08:04.141Z,5.40
2023-04-18T12:12:09.450Z,4.80
2023-04-18T12:16:14.771Z,5.40
2023-04-18T12:20:37.993Z,5.70
2023-04-18T12:29:31.882Z,5.30
2023-04-18T12:38:28.213Z,4.70
2023-04-18T12:42:33.731Z,4.60
2023-04-18T12:46:39.060Z,5.50
2023-04-18T12:50:44.332Z,4.90
2023-04-18T12:54:49.675Z,5.00
2023-04-18T12:59:18.220Z,4.50
2023-04-18T13:07:44.570Z,4.50
2023-04-18T13:11:49.860Z,4.20
2023-04-18T13:16:19.250Z,4.40
2023-04-18T13:20:50.670Z,5.00
2023-04-18T13:25:19.323Z,4.40
2023-04-18T13:29:48.478Z,4.40
2023-04-18T13:38:04.108Z,4.50
2023-04-18T13:42:09.796Z,4.80
2023-04-18T13:46:29.408Z,3.80
2023-04-18T13:50:34.744Z,4.90
2023-04-18T13:59:38.593Z,3.70
2023-04-18T14:08:04.125Z,3.60
2023-04-18T14:12:51.848Z,3.60
2023-04-18T14:16:57.279Z,3.20
2023-04-18T14:21:02.562Z,3.60
2023-04-18T14:25:17.106Z,3.30
2023-04-18T14:29:39.354Z,3.90
2023-04-18T14:34:05.859Z,3.70
2023-04-18T14:38:20.209Z,3.80
2023-04-18T14:42:25.485Z,3.90
2023-04-18T14:46:30.893Z,3.80
2023-04-18T14:50:39.328Z,3.30
2023-04-18T14:54:44.564Z,3.10
2023-04-18T14:58:49.848Z,3.50
2023-04-18T15:03:03.824Z,3.00
2023-04-18T15:07:09.333Z,2.80
2023-04-18T15:11:14.588Z,2.80
2023-04-18T15:15:25.477Z,3.00
2023-04-18T15:19:31.924Z,3.00
2023-04-18T15:23:37.206Z,2.80
2023-04-18T15:27:51.710Z,3.20
2023-04-18T15:31:57.541Z,2.70
2023-04-18T15:36:02.839Z,3.10
2023-04-18T15:40:33.035Z,3.30
2023-04-18T15:45:05.545Z,2.80
2023-04-18T15:49:34.627Z,3.40
2023-04-18T15:53:39.934Z,2.80
2023-04-18T15:57:53.776Z,3.20
2023-04-18T16:01:59.248Z,3.30
2023-04-18T16:06:28.500Z,3.10
2023-04-18T16:15:23.965Z,5.80
2023-04-18T16:28:14.557Z,3.70
2023-04-18T16:32:19.802Z,4.10
2023-04-18T16:36:51.058Z,4.00
2023-04-18T16:41:02.660Z,4.10
2023-04-18T16:45:08.757Z,3.40
2023-04-18T16:49:14.151Z,3.40
2023-04-18T16:53:27.936Z,4.00
2023-04-18T16:57:33.394Z,3.60
2023-04-18T17:01:38.799Z,3.80
2023-04-18T17:05:44.644Z,3.90
2023-04-18T17:10:19.436Z,3.60
2023-04-18T17:14:24.685Z,3.30
2023-04-18T17:18:29.906Z,3.90
2023-04-18T17:22:35.658Z,3.70
2023-04-18T17:26:41.104Z,4.00
2023-04-18T17:30:46.471Z,3.80
2023-04-18T17:34:51.736Z,4.20
2023-04-18T17:38:58.957Z,4.60
2023-04-18T17:43:04.204Z,3.10
2023-04-18T17:47:09.667Z,4.30
2023-04-18T17:51:16.376Z,4.50
2023-04-18T17:55:21.748Z,3.90
2023-04-18T17:59:27.505Z,4.10
2023-04-18T18:03:32.815Z,3.40
2023-04-18T18:07:38.388Z,3.80
2023-04-18T18:11:44.171Z,3.30
2023-04-18T18:15:49.405Z,4.20
2023-04-18T18:19:54.921Z,3.70
2023-04-18T18:24:00.165Z,4.30
2023-04-18T18:28:07.155Z,3.40
2023-04-18T18:32:12.427Z,3.50
2023-04-18T18:36:17.790Z,3.40
2023-04-18T18:40:23.256Z,3.10
2023-04-18T18:44:28.661Z,3.70
2023-04-18T18:48:37.002Z,4.00
2023-04-18T18:52:43.249Z,4.90
2023-04-18T18:56:48.554Z,3.60
2023-04-18T19:00:54.529Z,3.30
2023-04-18T19:05:00.079Z,3.60
2023-04-18T19:09:05.840Z,4.50
2023-04-18T19:13:11.189Z,3.70
2023-04-18T19:17:17.747Z,2.80
2023-04-18T19:21:22.968Z,4.30
2023-04-18T19:25:28.254Z,3.70
2023-04-18T19:29:33.442Z,3.60
2023-04-18T19:33:38.657Z,2.70
2023-04-18T19:37:43.995Z,2.90
2023-04-18T19:41:49.301Z,3.90
2023-04-18T19:45:55.394Z,3.10
2023-04-18T19:50:00.950Z,3.30
2023-04-18T19:54:06.416Z,3.20
2023-04-18T19:58:11.662Z,3.20
2023-04-18T20:02:17.003Z,3.00
2023-04-18T20:06:22.263Z,3.60
2023-04-18T20:10:27.679Z,3.80
2023-04-18T20:14:33.028Z,3.10
2023-04-18T20:18:39.637Z,2.70
2023-04-18T20:22:46.978Z,3.50
2023-04-18T20:26:52.566Z,2.90
2023-04-18T20:30:57.847Z,2.90
2023-04-18T20:35:04.502Z,3.50
2023-04-18T20:39:09.938Z,3.20
2023-04-18T20:43:17.483Z,2.50
2023-04-18T20:47:22.842Z,3.70
2023-04-18T20:51:29.593Z,3.60
2023-04-18T20:55:34.841Z,3.40
2023-04-18T20:59:40.060Z,3.30
2023-04-18T21:03:45.453Z,3.30
2023-04-18T21:07:51.028Z,3.40
2023-04-18T21:11:58.503Z,3.30
2023-04-18T21:16:06.661Z,3.80
2023-04-18T21:20:14.457Z,3.80
2023-04-18T21:24:19.699Z,2.40
2023-04-18T21:28:24.964Z,3.40
2023-04-18T21:32:30.206Z,2.60
2023-04-18T21:36:36.079Z,3.50
2023-04-18T21:40:41.268Z,3.20
2023-04-18T21:44:46.668Z,3.10
2023-04-18T21:48:51.940Z,2.90
2023-04-18T21:52:57.174Z,2.80
2023-04-18T21:57:02.756Z,2.70
2023-04-18T22:01:08.072Z,2.80
2023-04-18T22:05:14.007Z,2.60
2023-04-18T22:09:19.456Z,3.00
2023-04-18T22:13:24.796Z,2.90
2023-04-18T22:17:30.032Z,2.90
2023-04-18T22:21:35.266Z,2.60
2023-04-18T22:25:40.750Z,3.20
2023-04-18T22:29:45.974Z,2.60
2023-04-18T22:37:56.231Z,2.90
2023-04-18T22:42:01.493Z,2.90
2023-04-18T22:46:06.859Z,3.20
2023-04-18T22:50:12.676Z,3.20
2023-04-18T22:54:18.007Z,2.30
2023-04-18T22:58:23.254Z,2.50
2023-04-18T23:06:32.569Z,3.00
2023-04-18T23:10:37.813Z,2.50
2023-04-18T23:22:51.798Z,2.70
2023-04-18T23:26:57.167Z,3.10
2023-04-18T23:31:02.429Z,2.70
2023-04-18T23:35:07.984Z,3.30
2023-04-18T23:39:13.234Z,2.40
2023-04-18T23:47:22.473Z,2.40
2023-04-18T23:51:28.075Z,2.10
2023-04-18T23:55:33.335Z,1.60
